createdAt,value
2022-07-25T00:04:37.067Z,16.00
2022-07-25T00:09:39.344Z,16.13
2022-07-25T00:14:41.701Z,16.30
2022-07-25T00:19:43.942Z,16.45
2022-07-25T00:24:46.167Z,17.23
2022-07-25T00:29:48.394Z,17.10
2022-07-25T00:34:50.645Z,17.52
2022-07-25T00:39:52.925Z,17.38
2022-07-25T00:44:55.156Z,18.58
2022-07-25T00:49:57.571Z,17.73
2022-07-25T00:54:59.843Z,19.30
2022-07-25T01:00:02.547Z,19.63
2022-07-25T01:05:06.800Z,19.02
2022-07-25T01:10:12.492Z,20.13
2022-07-25T01:15:16.790Z,20.05
2022-07-25T01:20:20.987Z,20.05
2022-07-25T01:25:24.026Z,20.63
2022-07-25T01:30:26.847Z,21.30
2022-07-25T01:35:29.154Z,21.83
2022-07-25T01:40:31.349Z,21.38
2022-07-25T01:45:34.345Z,21.13
2022-07-25T01:50:36.728Z,22.50
2022-07-25T01:55:38.954Z,21.77
2022-07-25T02:00:41.266Z,22.33
2022-07-25T02:05:43.452Z,23.08
2022-07-25T02:10:45.910Z,22.40
2022-07-25T02:15:48.750Z,21.70
2022-07-25T02:20:50.950Z,22.80
2022-07-25T02:25:53.207Z,22.27
2022-07-25T02:30:55.561Z,22.48
2022-07-25T02:35:57.919Z,21.48
2022-07-25T02:41:00.163Z,22.67
2022-07-25T02:46:02.564Z,22.85
2022-07-25T02:51:04.969Z,22.23
2022-07-25T02:56:07.536Z,22.80
2022-07-25T03:01:10.234Z,22.50
2022-07-25T03:06:12.492Z,21.52
2022-07-25T03:11:16.588Z,22.40
2022-07-25T03:16:18.866Z,22.48
2022-07-25T03:21:21.273Z,22.15
2022-07-25T03:26:23.458Z,22.23
2022-07-25T03:31:28.515Z,21.33
2022-07-25T03:36:30.803Z,22.02
2022-07-25T03:41:33.315Z,20.40
2022-07-25T03:46:35.533Z,22.05
2022-07-25T03:51:38.041Z,23.10
2022-07-25T04:01:53.205Z,25.30
2022-07-25T04:06:55.395Z,25.83
2022-07-25T04:11:57.583Z,25.60
2022-07-25T04:17:00.016Z,26.02
2022-07-25T04:22:02.291Z,26.08
2022-07-25T04:27:04.473Z,25.25
2022-07-25T04:32:07.138Z,25.77
2022-07-25T04:37:09.544Z,26.30
2022-07-25T04:42:11.716Z,26.38
2022-07-25T04:47:13.873Z,26.77
2022-07-25T04:52:16.039Z,26.92
2022-07-25T04:57:18.379Z,26.95
2022-07-25T05:02:20.799Z,26.73
2022-07-25T05:07:22.965Z,26.65
2022-07-25T05:12:25.155Z,26.60
2022-07-25T05:17:27.362Z,26.45
2022-07-25T05:22:29.784Z,26.20
2022-07-25T05:27:31.946Z,27.10
2022-07-25T05:32:34.135Z,26.50
2022-07-25T05:37:37.393Z,27.02
2022-07-25T05:42:39.565Z,26.08
2022-07-25T05:47:41.826Z,26.40
2022-07-25T05:52:44.048Z,25.40
2022-07-25T05:57:46.221Z,24.25
2022-07-25T06:02:48.544Z,23.88
2022-07-25T06:07:50.817Z,24.15
2022-07-25T06:12:53.104Z,22.80
2022-07-25T06:17:56.340Z,24.88
2022-07-25T06:22:58.555Z,24.58
2022-07-25T06:28:01.591Z,25.13
2022-07-25T06:33:03.812Z,23.92
2022-07-25T06:38:05.961Z,23.50
2022-07-25T06:43:08.223Z,23.15
2022-07-25T06:48:10.370Z,22.38
2022-07-25T06:53:12.849Z,21.52
2022-07-25T06:58:15.035Z,20.25
2022-07-25T07:03:17.394Z,20.15
2022-07-25T07:08:19.586Z,19.00
2022-07-25T07:13:24.627Z,18.60
2022-07-25T07:18:27.049Z,20.15
2022-07-25T07:23:29.294Z,19.90
2022-07-25T07:28:32.073Z,19.10
2022-07-25T07:33:35.104Z,17.65
2022-07-25T07:38:37.298Z,16.88
2022-07-25T07:43:39.484Z,17.08
2022-07-25T07:48:41.695Z,16.30
2022-07-25T07:54:03.884Z,16.13
2022-07-25T07:59:06.332Z,15.82
2022-07-25T08:04:08.781Z,15.70
2022-07-25T08:09:11.090Z,15.07
2022-07-25T08:14:13.288Z,16.15
2022-07-25T08:19:15.453Z,15.93
2022-07-25T08:24:17.643Z,15.20
2022-07-25T08:29:22.867Z,14.68
2022-07-25T08:34:28.505Z,13.63
2022-07-25T08:39:31.072Z,13.07
2022-07-25T08:44:37.830Z,13.02
2022-07-25T08:49:40.188Z,13.70
2022-07-25T08:54:43.714Z,15.27
2022-07-25T08:59:46.027Z,15.30
2022-07-25T09:04:48.846Z,14.27
2022-07-25T09:09:51.244Z,14.52
2022-07-25T09:14:54.094Z,13.20
2022-07-25T09:19:57.260Z,12.15
2022-07-25T09:24:59.423Z,14.25
2022-07-25T09:30:11.717Z,12.43
2022-07-25T09:35:14.134Z,12.27
2022-07-25T09:40:16.380Z,13.40
2022-07-25T09:45:18.548Z,13.90
2022-07-25T09:50:22.113Z,12.68
2022-07-25T09:55:24.635Z,12.80
2022-07-25T10:00:29.027Z,13.35
2022-07-25T10:06:11.077Z,13.70
2022-07-25T10:11:30.240Z,14.13
2022-07-25T10:16:33.057Z,13.77
2022-07-25T10:21:35.269Z,13.43
2022-07-25T10:26:39.936Z,13.50
2022-07-25T10:31:50.384Z,13.60
2022-07-25T10:36:57.042Z,12.57
2022-07-25T10:42:02.721Z,13.10
2022-07-25T10:47:13.682Z,13.35
2022-07-25T10:52:18.128Z,13.90
2022-07-25T10:57:21.289Z,14.00
2022-07-25T11:02:24.324Z,13.77
2022-07-25T11:07:28.603Z,13.82
2022-07-25T11:12:31.306Z,13.18
2022-07-25T11:17:34.331Z,14.55
2022-07-25T11:22:36.540Z,14.23
2022-07-25T11:27:38.723Z,14.50
2022-07-25T11:32:45.436Z,16.15
2022-07-25T11:37:50.734Z,15.90
2022-07-25T11:42:55.291Z,15.45
2022-07-25T11:48:14.319Z,15.18
2022-07-25T11:53:18.451Z,14.52
2022-07-25T11:58:23.795Z,14.65
2022-07-25T12:03:26.114Z,14.10
2022-07-25T12:08:28.415Z,14.93
2022-07-25T12:13:31.056Z,14.90
2022-07-25T12:18:33.188Z,15.00
2022-07-25T12:23:35.468Z,16.40
2022-07-25T12:28:37.700Z,15.30
2022-07-25T12:33:39.903Z,16.40
2022-07-25T12:38:42.128Z,17.15
2022-07-25T12:43:44.512Z,16.90
2022-07-25T12:48:47.141Z,16.70
2022-07-25T12:53:49.360Z,16.10
2022-07-25T12:58:51.721Z,15.88
2022-07-25T13:03:53.980Z,16.20
2022-07-25T13:08:56.120Z,16.15
2022-07-25T13:13:58.287Z,14.32
2022-07-25T13:19:00.478Z,14.30
2022-07-25T13:24:03.197Z,15.18
2022-07-25T13:29:11.592Z,15.65
2022-07-25T13:34:14.871Z,15.43
2022-07-25T13:39:17.101Z,16.70
2022-07-25T13:44:19.295Z,15.82
2022-07-25T13:49:21.754Z,15.10
2022-07-25T13:54:23.964Z,13.48
2022-07-25T13:59:26.148Z,13.50
2022-07-25T14:04:28.355Z,15.38
2022-07-25T14:09:30.789Z,17.10
2022-07-25T14:14:32.947Z,14.90
2022-07-25T14:19:35.183Z,15.52
2022-07-25T14:24:37.345Z,15.23
2022-07-25T14:29:39.488Z,13.45
2022-07-25T14:34:41.831Z,15.27
2022-07-25T14:39:44.001Z,16.65
2022-07-25T14:44:46.192Z,15.35
2022-07-25T14:49:49.465Z,14.18
2022-07-25T14:54:51.660Z,12.68
2022-07-25T14:59:53.818Z,14.93
2022-07-25T15:04:56.091Z,13.65
2022-07-25T15:09:58.310Z,13.60
2022-07-25T15:15:00.471Z,13.68
2022-07-25T15:20:02.690Z,13.63
2022-07-25T15:30:29.464Z,14.10
2022-07-25T15:35:31.832Z,14.85
2022-07-25T15:40:34.041Z,14.07
2022-07-25T15:45:39.387Z,14.90
2022-07-25T15:50:44.737Z,15.15
2022-07-25T15:55:47.198Z,14.85
2022-07-25T16:00:49.681Z,15.48
2022-07-25T16:05:53.777Z,14.55
2022-07-25T16:10:56.279Z,15.55
2022-07-25T16:15:58.681Z,15.07
2022-07-25T16:21:00.858Z,14.68
2022-07-25T16:26:03.969Z,15.95
2022-07-25T16:31:07.257Z,14.15
2022-07-25T16:36:10.927Z,15.07
2022-07-25T16:41:13.128Z,16.60
2022-07-25T16:46:15.701Z,15.10
2022-07-25T16:51:17.884Z,14.13
2022-07-25T16:56:20.399Z,15.10
2022-07-25T17:01:24.728Z,14.77
2022-07-25T17:06:27.256Z,14.18
2022-07-25T17:11:30.082Z,14.82
2022-07-25T17:16:32.641Z,14.63
2022-07-25T17:21:34.924Z,14.27
2022-07-25T17:26:37.319Z,14.25
2022-07-25T17:31:39.572Z,14.27
2022-07-25T17:36:42.509Z,14.13
2022-07-25T17:41:44.800Z,14.00
2022-07-25T17:46:47.189Z,14.15
2022-07-25T17:51:49.533Z,14.35
2022-07-25T17:56:52.009Z,14.45
2022-07-25T18:01:54.311Z,13.88
2022-07-25T18:06:56.830Z,14.63
2022-07-25T18:12:00.213Z,14.23
2022-07-25T18:17:03.455Z,13.88
2022-07-25T18:22:05.977Z,14.18
2022-07-25T18:27:08.204Z,14.60
2022-07-25T18:32:10.497Z,15.00
2022-07-25T18:37:12.668Z,13.75
2022-07-25T18:42:15.085Z,14.77
2022-07-25T18:47:17.348Z,13.93
2022-07-25T18:52:21.895Z,14.85
2022-07-25T18:57:24.065Z,14.38
2022-07-25T19:02:26.473Z,14.50
2022-07-25T19:07:31.088Z,14.32
2022-07-25T19:12:33.299Z,14.45
2022-07-25T19:17:37.662Z,14.05
2022-07-25T19:22:39.872Z,14.10
2022-07-25T19:27:42.177Z,14.15
2022-07-25T19:32:45.026Z,14.30
2022-07-25T19:37:47.212Z,14.43
2022-07-25T19:42:49.361Z,15.45
2022-07-25T19:47:51.950Z,14.68
2022-07-25T19:52:54.392Z,14.75
2022-07-25T19:57:56.678Z,15.27
2022-07-25T20:02:58.916Z,13.90
2022-07-25T20:08:01.161Z,13.73
2022-07-25T20:13:03.593Z,13.05
2022-07-25T20:18:05.780Z,12.93
2022-07-25T20:23:07.981Z,13.40
2022-07-25T20:28:10.172Z,12.90
2022-07-25T20:33:12.755Z,13.45
2022-07-25T20:38:15.132Z,13.60
2022-07-25T20:43:17.868Z,13.43
2022-07-25T20:48:20.250Z,13.77
2022-07-25T20:53:23.240Z,14.25
2022-07-25T20:58:25.457Z,13.40
2022-07-25T21:03:28.170Z,14.38
2022-07-25T21:08:30.528Z,14.98
2022-07-25T21:13:33.080Z,14.35
2022-07-25T21:18:35.458Z,13.98
2022-07-25T21:23:38.796Z,14.23
2022-07-25T21:28:41.578Z,13.75
2022-07-25T21:33:43.778Z,14.10
2022-07-25T21:43:48.340Z,13.35
2022-07-25T21:49:10.829Z,13.02
2022-07-25T21:54:13.527Z,13.40
2022-07-25T21:59:15.816Z,14.07
2022-07-25T22:04:18.155Z,13.50
2022-07-25T22:09:20.421Z,14.07
2022-07-25T22:19:25.027Z,13.57
2022-07-25T22:24:27.464Z,13.85
2022-07-25T22:29:29.796Z,14.30
2022-07-25T22:34:32.144Z,13.80
2022-07-25T22:39:34.461Z,14.20
2022-07-25T22:44:36.647Z,13.82
2022-07-25T22:54:41.040Z,13.05
2022-07-25T22:59:43.298Z,12.18
2022-07-25T23:04:45.513Z,13.23
2022-07-25T23:14:49.750Z,13.23
2022-07-25T23:24:56.102Z,13.45
2022-07-25T23:29:58.375Z,13.55
2022-07-25T23:35:00.776Z,14.20
2022-07-25T23:40:03.433Z,13.40
2022-07-25T23:45:06.628Z,15.52
2022-07-25T23:50:10.647Z,14.40
2022-07-25T23:55:13.026Z,13.98
